createdAt,value
2022-10-25T00:02:19.931Z,11.23
2022-10-25T00:04:49.432Z,7.27
2022-10-25T00:07:18.278Z,12.23
2022-10-25T00:09:47.017Z,9.27
2022-10-25T00:12:15.661Z,7.47
2022-10-25T00:14:45.899Z,7.20
2022-10-25T00:17:15.721Z,8.00
2022-10-25T00:19:44.351Z,6.33
2022-10-25T00:22:12.956Z,5.40
2022-10-25T00:24:41.583Z,6.53
2022-10-25T00:27:10.389Z,6.60
2022-10-25T00:29:39.256Z,6.80
2022-10-25T00:32:09.661Z,8.57
2022-10-25T00:34:41.179Z,9.00
2022-10-25T00:37:10.022Z,6.63
2022-10-25T00:39:38.922Z,8.43
2022-10-25T00:42:09.433Z,7.73
2022-10-25T00:44:57.910Z,6.47
2022-10-25T00:47:49.753Z,7.67
2022-10-25T00:50:34.517Z,8.70
2022-10-25T00:53:12.174Z,8.53
2022-10-25T00:55:47.845Z,8.13
2022-10-25T00:58:23.255Z,9.00
2022-10-25T01:00:52.245Z,9.17
2022-10-25T01:03:25.230Z,7.40
2022-10-25T01:05:55.309Z,6.00
2022-10-25T01:08:25.653Z,5.67
2022-10-25T01:10:54.426Z,4.43
2022-10-25T01:13:23.492Z,9.13
2022-10-25T01:16:12.382Z,12.63
2022-10-25T01:18:56.368Z,8.23
2022-10-25T01:21:48.857Z,10.67
2022-10-25T01:25:10.330Z,10.07
2022-10-25T01:28:08.024Z,8.10
2022-10-25T01:31:18.746Z,8.37
2022-10-25T01:33:58.347Z,8.20
2022-10-25T01:36:42.844Z,9.17
2022-10-25T01:39:16.924Z,6.63
2022-10-25T01:41:58.303Z,5.00
2022-10-25T01:44:40.973Z,4.40
2022-10-25T01:47:18.910Z,6.20
2022-10-25T01:49:55.696Z,7.83
2022-10-25T01:52:26.205Z,6.90
2022-10-25T01:54:55.450Z,5.73
2022-10-25T01:57:46.395Z,4.83
2022-10-25T02:00:19.268Z,6.73
2022-10-25T02:03:03.682Z,6.40
2022-10-25T02:05:45.439Z,6.07
2022-10-25T02:08:29.154Z,11.23
2022-10-25T02:11:07.883Z,8.40
2022-10-25T02:13:53.307Z,12.27
2022-10-25T02:16:27.627Z,4.97
2022-10-25T02:19:02.799Z,9.73
2022-10-25T02:21:35.972Z,11.97
2022-10-25T02:24:12.373Z,9.80
2022-10-25T02:26:43.812Z,5.73
2022-10-25T02:29:15.746Z,7.33
2022-10-25T02:31:45.180Z,9.07
2022-10-25T02:34:15.415Z,6.93
2022-10-25T02:36:44.173Z,5.33
2022-10-25T02:39:12.905Z,10.60
2022-10-25T02:41:41.611Z,5.87
2022-10-25T02:44:10.300Z,7.33
2022-10-25T02:46:39.056Z,7.07
2022-10-25T02:49:07.711Z,9.97
2022-10-25T02:51:38.839Z,5.43
2022-10-25T02:54:07.818Z,9.57
2022-10-25T02:56:36.620Z,11.00
2022-10-25T02:59:05.515Z,5.67
2022-10-25T03:01:34.404Z,11.00
2022-10-25T03:04:03.196Z,7.03
2022-10-25T03:06:31.972Z,6.33
2022-10-25T03:09:02.127Z,6.10
2022-10-25T03:11:30.967Z,12.00
2022-10-25T03:13:59.621Z,13.43
2022-10-25T03:16:28.318Z,7.57
2022-10-25T03:18:59.549Z,10.23
2022-10-25T03:21:28.308Z,5.77
2022-10-25T03:23:56.993Z,7.80
2022-10-25T03:26:27.184Z,6.33
2022-10-25T03:28:56.987Z,4.77
2022-10-25T03:31:25.802Z,14.50
2022-10-25T03:33:54.635Z,6.80
2022-10-25T03:36:23.296Z,7.63
2022-10-25T03:38:52.148Z,14.63
2022-10-25T03:41:20.897Z,6.50
2022-10-25T03:43:50.987Z,6.87
2022-10-25T03:46:19.803Z,12.13
2022-10-25T03:48:48.515Z,9.13
2022-10-25T03:51:17.335Z,12.30
2022-10-25T03:53:47.308Z,5.50
2022-10-25T03:56:16.284Z,7.67
2022-10-25T03:58:45.090Z,9.10
2022-10-25T04:01:15.440Z,6.07
2022-10-25T04:03:45.660Z,6.87
2022-10-25T04:06:43.383Z,10.60
2022-10-25T04:09:12.103Z,11.83
2022-10-25T04:11:40.751Z,7.33
2022-10-25T04:14:09.516Z,7.47
2022-10-25T04:16:39.669Z,10.97
2022-10-25T04:19:08.378Z,9.30
2022-10-25T04:21:37.248Z,5.80
2022-10-25T04:24:06.538Z,8.37
2022-10-25T04:26:37.833Z,10.20
2022-10-25T04:29:07.711Z,11.57
2022-10-25T04:31:38.176Z,8.93
2022-10-25T04:34:06.930Z,13.67
2022-10-25T04:36:35.788Z,12.33
2022-10-25T04:39:04.562Z,7.83
2022-10-25T04:41:35.101Z,7.10
2022-10-25T04:44:05.213Z,7.90
2022-10-25T04:46:34.132Z,7.70
2022-10-25T04:49:05.402Z,4.50
2022-10-25T04:51:35.514Z,7.50
2022-10-25T04:54:08.064Z,7.73
2022-10-25T04:56:40.003Z,7.50
2022-10-25T04:59:16.125Z,5.73
2022-10-25T05:01:45.211Z,7.73
2022-10-25T05:04:15.443Z,6.57
2022-10-25T05:06:44.129Z,8.43
2022-10-25T05:09:12.809Z,8.30
2022-10-25T05:11:41.665Z,9.50
2022-10-25T05:14:15.629Z,5.73
2022-10-25T05:16:44.418Z,12.87
2022-10-25T05:19:14.647Z,8.53
2022-10-25T05:21:43.416Z,6.60
2022-10-25T05:24:12.164Z,4.47
2022-10-25T05:26:41.172Z,6.80
2022-10-25T05:29:13.821Z,4.60
2022-10-25T05:31:43.505Z,6.37
2022-10-25T05:34:12.502Z,5.07
2022-10-25T05:36:42.621Z,5.70
2022-10-25T05:39:11.480Z,7.27
2022-10-25T05:41:40.172Z,4.83
2022-10-25T05:44:09.230Z,5.43
2022-10-25T05:46:38.174Z,6.07
2022-10-25T05:49:06.863Z,5.33
2022-10-25T05:51:53.414Z,7.83
2022-10-25T05:54:23.588Z,9.17
2022-10-25T05:56:57.185Z,5.80
2022-10-25T05:59:31.212Z,10.50
2022-10-25T06:02:01.345Z,12.60
2022-10-25T06:04:31.089Z,6.83
2022-10-25T06:07:03.024Z,5.90
2022-10-25T06:09:33.283Z,9.33
2022-10-25T06:12:06.182Z,5.43
2022-10-25T06:14:38.736Z,6.83
2022-10-25T06:17:07.761Z,7.40
2022-10-25T06:19:37.551Z,12.30
2022-10-25T06:22:08.241Z,5.47
2022-10-25T06:24:46.046Z,3.53
2022-10-25T06:27:17.208Z,6.27
2022-10-25T06:29:55.174Z,8.63
2022-10-25T06:32:24.596Z,6.90
2022-10-25T06:34:54.002Z,7.83
2022-10-25T06:37:24.220Z,7.77
2022-10-25T06:39:52.997Z,7.07
2022-10-25T06:42:23.366Z,10.87
2022-10-25T06:44:52.518Z,5.17
2022-10-25T06:47:21.748Z,7.83
2022-10-25T06:50:02.401Z,7.20
2022-10-25T06:52:33.162Z,4.80
2022-10-25T06:55:02.378Z,9.47
2022-10-25T06:57:31.040Z,7.23
2022-10-25T07:00:11.292Z,7.37
2022-10-25T07:02:39.970Z,7.50
2022-10-25T07:05:27.015Z,4.93
2022-10-25T07:08:01.026Z,11.47
2022-10-25T07:10:29.748Z,8.43
2022-10-25T07:12:58.636Z,7.53
2022-10-25T07:15:30.707Z,7.93
2022-10-25T07:17:59.444Z,7.03
2022-10-25T07:20:28.288Z,5.30
2022-10-25T07:22:59.960Z,4.43
2022-10-25T07:25:33.060Z,8.10
2022-10-25T07:28:01.969Z,6.13
2022-10-25T07:30:32.731Z,4.00
2022-10-25T07:33:03.594Z,8.43
2022-10-25T07:35:42.110Z,6.70
2022-10-25T07:38:24.414Z,4.07
2022-10-25T07:41:01.015Z,3.80
2022-10-25T07:43:30.779Z,6.23
2022-10-25T07:46:00.125Z,8.40
2022-10-25T07:48:29.232Z,6.13
2022-10-25T07:50:57.980Z,2.60
2022-10-25T07:53:26.763Z,4.10
2022-10-25T07:55:57.026Z,7.30
2022-10-25T07:58:27.222Z,8.57
2022-10-25T08:01:04.117Z,6.97
2022-10-25T08:03:42.575Z,6.00
2022-10-25T08:06:11.264Z,6.60
2022-10-25T08:08:40.366Z,6.83
2022-10-25T08:11:09.400Z,6.87
2022-10-25T08:13:41.066Z,9.33
2022-10-25T08:16:10.295Z,6.27
2022-10-25T08:18:39.404Z,7.57
2022-10-25T08:21:09.122Z,8.10
2022-10-25T08:23:38.041Z,4.13
2022-10-25T08:26:07.293Z,8.97
2022-10-25T08:28:36.748Z,3.77
2022-10-25T08:31:07.569Z,5.00
2022-10-25T08:33:38.372Z,3.50
2022-10-25T08:36:08.178Z,3.17
2022-10-25T08:38:37.211Z,6.37
2022-10-25T08:41:17.616Z,5.67
2022-10-25T08:44:21.618Z,7.53
2022-10-25T08:47:00.973Z,5.00
2022-10-25T08:49:43.787Z,4.33
2022-10-25T08:52:23.525Z,3.30
2022-10-25T08:54:52.484Z,7.20
2022-10-25T08:57:26.058Z,7.17
2022-10-25T09:00:00.235Z,8.33
2022-10-25T09:02:44.188Z,2.77
2022-10-25T09:05:29.090Z,5.37
2022-10-25T09:08:28.559Z,6.93
2022-10-25T09:11:12.096Z,6.83
2022-10-25T09:13:52.828Z,2.87
2022-10-25T09:16:32.755Z,4.90
2022-10-25T09:19:09.761Z,9.53
2022-10-25T09:21:48.177Z,3.67
2022-10-25T09:24:24.871Z,4.90
2022-10-25T09:27:10.621Z,3.97
2022-10-25T09:29:44.064Z,7.70
2022-10-25T09:32:21.352Z,8.57
2022-10-25T09:35:17.399Z,7.87
2022-10-25T09:37:50.977Z,2.80
2022-10-25T09:40:24.732Z,11.30
2022-10-25T09:42:59.264Z,4.30
2022-10-25T09:45:37.355Z,3.67
2022-10-25T09:48:22.789Z,3.43
2022-10-25T09:51:00.787Z,5.47
2022-10-25T09:53:33.584Z,3.90
2022-10-25T09:56:06.159Z,5.17
2022-10-25T09:58:39.653Z,3.87
2022-10-25T10:01:16.883Z,6.03
2022-10-25T10:03:50.219Z,8.20
2022-10-25T10:06:33.355Z,5.97
2022-10-25T10:09:09.045Z,8.87
2022-10-25T10:11:53.395Z,5.93
2022-10-25T10:14:56.367Z,3.63
2022-10-25T10:17:27.554Z,3.77
2022-10-25T10:20:15.594Z,5.60
2022-10-25T10:22:55.898Z,5.03
2022-10-25T10:25:29.845Z,2.70
2022-10-25T10:28:00.371Z,6.70
2022-10-25T10:30:32.249Z,2.50
2022-10-25T10:36:28.404Z,7.80
2022-10-25T10:39:18.896Z,4.20
2022-10-25T10:42:02.578Z,6.00
2022-10-25T10:44:33.731Z,6.87
2022-10-25T10:47:09.020Z,3.03
2022-10-25T10:49:40.072Z,3.23
2022-10-25T10:57:29.331Z,5.63
2022-10-25T10:59:58.117Z,6.03
2022-10-25T11:02:40.192Z,4.73
2022-10-25T11:05:22.337Z,6.70
2022-10-25T11:07:58.614Z,5.80
2022-10-25T11:10:33.834Z,6.77
2022-10-25T11:13:17.390Z,5.37
2022-10-25T11:16:37.363Z,3.30
2022-10-25T11:19:41.212Z,2.33
2022-10-25T11:22:40.732Z,6.07
2022-10-25T11:25:27.984Z,6.00
2022-10-25T11:28:22.838Z,5.40
2022-10-25T11:31:08.083Z,4.53
2022-10-25T11:33:59.412Z,3.07
2022-10-25T11:36:49.221Z,5.80
2022-10-25T11:39:39.191Z,9.43
2022-10-25T11:42:41.941Z,5.97
2022-10-25T11:45:43.569Z,6.17
2022-10-25T11:48:45.931Z,3.60
2022-10-25T11:51:34.079Z,6.33
2022-10-25T11:54:31.311Z,3.43
2022-10-25T11:57:18.499Z,4.00
2022-10-25T12:00:04.120Z,3.50
2022-10-25T12:03:18.657Z,2.93
2022-10-25T12:06:10.191Z,3.47
2022-10-25T12:08:52.183Z,2.93
2022-10-25T12:11:30.441Z,4.43
2022-10-25T12:14:07.649Z,7.60
2022-10-25T12:16:40.383Z,3.87
2022-10-25T12:19:44.416Z,4.23
2022-10-25T12:23:16.158Z,5.23
2022-10-25T12:25:56.096Z,2.43
2022-10-25T12:28:33.539Z,5.63
2022-10-25T12:31:16.849Z,5.10
2022-10-25T12:33:54.722Z,3.83
2022-10-25T12:36:33.339Z,4.87
2022-10-25T12:39:12.482Z,2.80
2022-10-25T12:41:46.487Z,4.43
2022-10-25T12:44:55.477Z,3.97
2022-10-25T12:47:57.802Z,3.63
2022-10-25T12:50:52.580Z,3.93
2022-10-25T12:54:11.331Z,3.57
2022-10-25T12:57:05.218Z,3.47
2022-10-25T13:00:00.191Z,2.67
2022-10-25T13:03:28.201Z,3.37
2022-10-25T13:06:36.400Z,3.77
2022-10-25T13:09:15.076Z,3.50
2022-10-25T13:11:51.113Z,3.20
2022-10-25T13:14:28.787Z,2.27
2022-10-25T13:18:36.071Z,4.17
2022-10-25T13:21:09.494Z,4.47
2022-10-25T13:24:05.112Z,4.50
2022-10-25T13:27:25.608Z,4.57
2022-10-25T13:30:06.167Z,4.33
2022-10-25T13:32:38.327Z,2.63
2022-10-25T13:36:01.291Z,4.00
2022-10-25T13:38:38.833Z,5.47
2022-10-25T13:41:16.476Z,3.50
2022-10-25T13:44:26.854Z,6.43
2022-10-25T13:46:57.209Z,5.07
2022-10-25T13:49:42.318Z,3.70
2022-10-25T13:52:28.529Z,11.43
2022-10-25T13:54:59.232Z,4.43
2022-10-25T13:57:53.840Z,5.17
2022-10-25T14:00:49.763Z,6.20
2022-10-25T14:03:53.316Z,3.90
2022-10-25T14:06:29.581Z,8.80
2022-10-25T14:09:27.016Z,11.00
2022-10-25T14:12:16.755Z,4.77
2022-10-25T14:15:10.994Z,8.37
2022-10-25T14:17:43.977Z,3.33
2022-10-25T14:20:27.220Z,5.37
2022-10-25T14:23:01.830Z,6.63
2022-10-25T14:25:56.836Z,3.87
2022-10-25T14:28:32.604Z,6.33
2022-10-25T14:31:28.695Z,9.17
2022-10-25T14:34:04.299Z,5.27
2022-10-25T14:36:57.218Z,4.97
2022-10-25T14:39:28.589Z,6.47
2022-10-25T14:42:01.373Z,7.03
2022-10-25T14:44:32.972Z,4.90
2022-10-25T14:47:03.693Z,9.40
2022-10-25T14:49:34.556Z,18.87
2022-10-25T14:52:10.439Z,6.40
2022-10-25T14:54:44.248Z,5.90
2022-10-25T14:57:14.569Z,6.93
2022-10-25T14:59:52.381Z,10.47
2022-10-25T15:02:32.296Z,8.63
2022-10-25T15:05:07.683Z,9.30
2022-10-25T15:07:46.103Z,12.50
2022-10-25T15:10:41.157Z,5.60
2022-10-25T15:13:22.786Z,4.47
2022-10-25T15:15:55.492Z,6.87
2022-10-25T15:18:34.394Z,10.33
2022-10-25T15:21:13.517Z,9.40
2022-10-25T15:23:45.487Z,5.40
2022-10-25T15:26:32.771Z,6.17
2022-10-25T15:29:05.634Z,6.80
2022-10-25T15:31:35.196Z,9.03
2022-10-25T15:34:14.411Z,5.73
2022-10-25T15:36:46.393Z,6.07
2022-10-25T15:39:28.912Z,9.30
2022-10-25T15:41:58.406Z,4.20
2022-10-25T15:45:21.243Z,7.73
2022-10-25T15:47:51.336Z,5.13
2022-10-25T15:50:23.097Z,6.27
2022-10-25T15:52:54.326Z,12.43
2022-10-25T15:55:25.974Z,66.63
2022-10-25T15:57:56.319Z,21.53
2022-10-25T16:00:28.121Z,18.17
2022-10-25T16:02:59.137Z,14.93
2022-10-25T16:05:32.321Z,8.17
2022-10-25T16:12:34.992Z,9.90
2022-10-25T16:19:34.254Z,4.90
2022-10-25T16:22:03.762Z,8.73
2022-10-25T16:24:34.475Z,10.53
2022-10-25T16:27:30.979Z,8.43
2022-10-25T16:30:16.447Z,11.13
2022-10-25T16:33:06.208Z,8.07
2022-10-25T16:35:36.592Z,7.83
2022-10-25T16:38:06.944Z,10.87
2022-10-25T16:40:56.331Z,13.07
2022-10-25T16:43:34.027Z,11.87
2022-10-25T16:46:04.702Z,11.93
2022-10-25T16:49:01.102Z,9.47
2022-10-25T16:51:31.267Z,10.13
2022-10-25T16:54:07.093Z,9.97
2022-10-25T16:56:43.612Z,11.77
2022-10-25T16:59:13.325Z,15.03
2022-10-25T17:01:45.307Z,29.57
2022-10-25T17:04:17.723Z,29.97
2022-10-25T17:06:47.005Z,62.00
2022-10-25T17:09:16.674Z,47.30
2022-10-25T17:11:48.049Z,49.43
2022-10-25T17:14:17.433Z,53.93
2022-10-25T17:16:47.588Z,44.97
2022-10-25T17:19:19.176Z,20.53
2022-10-25T17:21:48.301Z,15.50
2022-10-25T17:24:17.381Z,8.93
2022-10-25T17:41:36.851Z,9.90
2022-10-25T17:44:06.036Z,8.20
2022-10-25T17:46:34.909Z,8.13
2022-10-25T17:49:06.057Z,10.53
2022-10-25T17:51:38.468Z,11.47
2022-10-25T17:54:12.206Z,16.33
2022-10-25T17:56:42.304Z,17.60
2022-10-25T17:59:12.739Z,18.77
2022-10-25T18:01:42.247Z,19.63
2022-10-25T18:04:11.307Z,16.37
2022-10-25T18:06:40.673Z,21.13
2022-10-25T18:09:11.141Z,20.43
2022-10-25T18:11:41.504Z,28.33
2022-10-25T18:14:12.515Z,24.80
2022-10-25T18:16:42.888Z,27.27
2022-10-25T18:19:16.435Z,24.77
2022-10-25T18:21:45.940Z,23.30
2022-10-25T18:24:15.594Z,19.70
2022-10-25T18:26:46.970Z,16.83
2022-10-25T18:29:17.054Z,18.90
2022-10-25T18:31:45.956Z,14.83
2022-10-25T18:34:15.008Z,14.93
2022-10-25T18:36:45.864Z,18.63
2022-10-25T18:39:14.696Z,27.53
2022-10-25T18:41:46.108Z,12.97
2022-10-25T18:44:15.482Z,12.80
2022-10-25T18:46:44.789Z,13.20
2022-10-25T18:49:15.479Z,10.10
2022-10-25T18:51:44.459Z,13.80
2022-10-25T18:54:14.263Z,14.60
2022-10-25T18:56:45.250Z,14.97
2022-10-25T18:59:14.881Z,10.63
2022-10-25T19:01:49.564Z,10.10
2022-10-25T19:04:19.402Z,11.77
2022-10-25T19:06:55.682Z,10.33
2022-10-25T19:09:26.789Z,11.90
2022-10-25T19:12:00.557Z,8.97
2022-10-25T19:14:44.014Z,10.20
2022-10-25T19:17:14.103Z,9.50
2022-10-25T19:19:43.140Z,10.90
2022-10-25T19:22:12.331Z,10.17
2022-10-25T19:24:42.633Z,16.30
2022-10-25T19:27:17.354Z,10.10
2022-10-25T19:29:46.195Z,10.50
2022-10-25T19:32:15.135Z,12.10
2022-10-25T19:34:52.631Z,10.67
2022-10-25T19:37:21.657Z,7.10
2022-10-25T19:39:51.726Z,12.93
2022-10-25T19:42:22.676Z,7.43
2022-10-25T19:44:54.117Z,12.53
2022-10-25T19:47:23.012Z,13.90
2022-10-25T19:49:55.066Z,11.73
2022-10-25T19:52:25.081Z,10.60
2022-10-25T19:56:15.698Z,13.43
2022-10-25T19:58:46.079Z,13.40
2022-10-25T20:01:21.920Z,11.07
2022-10-25T20:03:57.503Z,9.07
2022-10-25T20:06:29.220Z,6.17
2022-10-25T20:09:00.640Z,5.73
2022-10-25T20:11:31.739Z,9.37
2022-10-25T20:14:03.880Z,9.90
2022-10-25T20:17:56.976Z,8.67
2022-10-25T20:20:25.578Z,7.73
2022-10-25T20:22:54.229Z,5.17
2022-10-25T20:25:23.025Z,8.57
2022-10-25T20:27:52.092Z,5.63
2022-10-25T20:30:22.135Z,8.30
2022-10-25T20:32:51.150Z,8.83
2022-10-25T20:35:27.430Z,7.73
2022-10-25T20:37:56.348Z,6.80
2022-10-25T20:40:25.239Z,9.30
2022-10-25T20:42:53.857Z,14.40
2022-10-25T20:45:23.902Z,8.87
2022-10-25T20:47:55.950Z,5.07
2022-10-25T20:50:29.326Z,6.80
2022-10-25T20:53:09.787Z,11.43
2022-10-25T20:55:39.930Z,6.70
2022-10-25T20:58:09.561Z,7.97
2022-10-25T21:00:40.763Z,9.80
2022-10-25T21:03:12.852Z,5.70
2022-10-25T21:05:45.248Z,8.50
2022-10-25T21:08:15.973Z,10.20
2022-10-25T21:10:45.497Z,14.50
2022-10-25T21:13:14.148Z,6.17
2022-10-25T21:15:46.694Z,8.40
2022-10-25T21:18:16.386Z,7.60
2022-10-25T21:20:45.179Z,5.03
2022-10-25T21:23:14.314Z,5.77
2022-10-25T21:25:43.016Z,5.83
2022-10-25T21:28:11.842Z,11.17
2022-10-25T21:30:40.641Z,9.83
2022-10-25T21:33:10.880Z,8.17
2022-10-25T21:35:39.600Z,7.30
2022-10-25T21:38:08.292Z,8.17
2022-10-25T21:40:37.027Z,7.00
2022-10-25T21:43:05.712Z,6.23
2022-10-25T21:45:34.421Z,7.43
2022-10-25T21:48:03.253Z,12.00
2022-10-25T21:50:33.350Z,4.67
2022-10-25T21:53:02.086Z,5.80
2022-10-25T21:55:30.812Z,9.97
2022-10-25T21:58:00.011Z,6.83
2022-10-25T22:00:29.096Z,8.87
2022-10-25T22:03:00.066Z,10.73
2022-10-25T22:05:29.730Z,7.50
2022-10-25T22:08:03.077Z,5.47
2022-10-25T22:10:32.402Z,6.30
2022-10-25T22:13:06.465Z,8.00
2022-10-25T22:15:35.475Z,6.30
2022-10-25T22:18:04.667Z,4.80
2022-10-25T22:20:35.542Z,7.83
2022-10-25T22:23:06.905Z,6.83
2022-10-25T22:25:39.272Z,5.10
2022-10-25T22:28:08.022Z,8.23
2022-10-25T22:30:36.746Z,5.93
2022-10-25T22:33:05.684Z,4.17
2022-10-25T22:35:35.362Z,6.20
2022-10-25T22:38:05.562Z,8.70
2022-10-25T22:40:38.687Z,6.30
2022-10-25T22:43:08.061Z,10.03
2022-10-25T22:45:37.511Z,5.17
2022-10-25T22:48:06.725Z,7.07
2022-10-25T22:50:35.419Z,8.37
2022-10-25T22:53:05.450Z,14.50
2022-10-25T22:55:41.312Z,9.20
2022-10-25T22:58:10.244Z,3.67
2022-10-25T23:00:39.009Z,4.70
2022-10-25T23:03:07.622Z,8.40
2022-10-25T23:05:38.234Z,6.67
2022-10-25T23:08:09.170Z,8.67
2022-10-25T23:10:40.469Z,4.03
2022-10-25T23:13:09.510Z,3.63
2022-10-25T23:15:38.249Z,3.60
2022-10-25T23:18:07.375Z,5.17
2022-10-25T23:24:58.873Z,5.57
2022-10-25T23:27:30.628Z,6.33
2022-10-25T23:29:59.492Z,6.30
2022-10-25T23:32:28.856Z,6.30
2022-10-25T23:34:57.739Z,8.13
2022-10-25T23:37:26.607Z,4.57
2022-10-25T23:39:55.343Z,5.70
2022-10-25T23:42:25.687Z,6.27
2022-10-25T23:44:54.504Z,6.80
2022-10-25T23:47:25.437Z,3.67
2022-10-25T23:49:54.148Z,7.47
2022-10-25T23:52:22.998Z,6.47
2022-10-25T23:54:51.782Z,4.10
2022-10-25T23:57:20.781Z,6.93
2022-10-25T23:59:51.205Z,6.50
